createdAt,value
2022-10-05T00:01:34.753Z,10.07
2022-10-05T00:04:12.017Z,10.08
2022-10-05T00:06:41.390Z,10.05
2022-10-05T00:09:14.503Z,10.06
2022-10-05T00:11:44.432Z,10.02
2022-10-05T00:14:21.516Z,10.02
2022-10-05T00:16:52.013Z,9.95
2022-10-05T00:19:33.880Z,9.81
2022-10-05T00:22:12.421Z,9.82
2022-10-05T00:24:41.103Z,9.80
2022-10-05T00:27:18.535Z,9.73
2022-10-05T00:29:47.349Z,9.67
2022-10-05T00:32:18.331Z,9.79
2022-10-05T00:34:47.814Z,9.90
2022-10-05T00:37:17.004Z,9.87
2022-10-05T00:39:45.537Z,9.74
2022-10-05T00:42:26.403Z,9.74
2022-10-05T00:44:58.335Z,9.83
2022-10-05T00:47:47.695Z,9.85
2022-10-05T00:50:35.932Z,9.82
2022-10-05T00:53:13.066Z,9.71
2022-10-05T00:55:55.490Z,9.64
2022-10-05T00:58:39.465Z,9.67
2022-10-05T01:01:12.421Z,9.76
2022-10-05T01:03:57.607Z,9.68
2022-10-05T01:06:34.913Z,9.65
2022-10-05T01:09:10.704Z,9.74
2022-10-05T01:11:47.556Z,9.74
2022-10-05T01:14:22.982Z,9.69
2022-10-05T01:16:56.693Z,9.52
2022-10-05T01:19:44.253Z,9.56
2022-10-05T01:22:24.216Z,9.55
2022-10-05T01:25:08.274Z,9.55
2022-10-05T01:27:43.840Z,9.51
2022-10-05T01:30:14.091Z,9.54
2022-10-05T01:32:50.147Z,9.55
2022-10-05T01:35:32.064Z,9.60
2022-10-05T01:38:18.543Z,9.67
2022-10-05T01:40:59.367Z,9.68
2022-10-05T01:43:35.813Z,9.63
2022-10-05T01:46:13.222Z,9.59
2022-10-05T01:48:55.247Z,9.56
2022-10-05T01:51:35.036Z,9.59
2022-10-05T01:54:15.569Z,9.63
2022-10-05T01:56:54.646Z,9.65
2022-10-05T01:59:38.536Z,9.70
2022-10-05T02:02:12.294Z,9.57
2022-10-05T02:05:02.589Z,9.45
2022-10-05T02:07:37.539Z,9.49
2022-10-05T02:10:10.137Z,9.53
2022-10-05T02:12:40.094Z,9.46
2022-10-05T02:15:15.234Z,9.43
2022-10-05T02:17:50.081Z,9.37
2022-10-05T02:20:26.470Z,9.30
2022-10-05T02:22:57.055Z,9.26
2022-10-05T02:25:30.923Z,9.21
2022-10-05T02:28:05.695Z,9.00
2022-10-05T02:30:42.510Z,9.19
2022-10-05T02:33:19.178Z,9.27
2022-10-05T02:35:48.142Z,9.30
2022-10-05T02:38:27.815Z,9.26
2022-10-05T02:41:07.250Z,9.06
2022-10-05T02:43:49.545Z,8.99
2022-10-05T02:46:29.872Z,9.00
2022-10-05T02:49:08.844Z,8.97
2022-10-05T02:51:44.909Z,9.00
2022-10-05T02:54:22.928Z,9.06
2022-10-05T02:57:01.533Z,9.12
2022-10-05T02:59:37.553Z,9.10
2022-10-05T03:02:16.475Z,9.01
2022-10-05T03:05:00.228Z,8.96
2022-10-05T03:07:33.559Z,8.98
2022-10-05T03:10:10.523Z,8.98
2022-10-05T03:12:52.933Z,8.83
2022-10-05T03:15:50.864Z,8.81
2022-10-05T03:18:33.726Z,8.67
2022-10-05T03:21:14.454Z,8.74
2022-10-05T03:23:54.364Z,8.81
2022-10-05T03:26:34.272Z,8.81
2022-10-05T03:29:13.310Z,8.84
2022-10-05T03:31:50.321Z,8.81
2022-10-05T03:34:26.329Z,8.78
2022-10-05T03:37:04.447Z,8.80
2022-10-05T03:39:40.612Z,8.76
2022-10-05T03:42:21.023Z,8.78
2022-10-05T03:44:58.498Z,8.82
2022-10-05T03:47:33.835Z,8.84
2022-10-05T03:50:20.086Z,8.78
2022-10-05T03:52:51.979Z,8.79
2022-10-05T03:55:29.926Z,8.74
2022-10-05T03:58:07.596Z,8.71
2022-10-05T04:00:37.969Z,8.73
2022-10-05T04:03:13.419Z,8.74
2022-10-05T04:05:48.216Z,8.69
2022-10-05T04:08:24.641Z,8.52
2022-10-05T04:10:56.500Z,8.51
2022-10-05T04:13:32.576Z,8.45
2022-10-05T04:16:08.154Z,8.40
2022-10-05T04:18:41.489Z,8.38
2022-10-05T04:21:23.541Z,8.46
2022-10-05T04:24:00.466Z,8.40
2022-10-05T04:26:37.086Z,8.28
2022-10-05T04:29:17.395Z,8.27
2022-10-05T04:32:05.152Z,8.27
2022-10-05T04:34:54.427Z,8.31
2022-10-05T04:37:35.844Z,8.23
2022-10-05T04:40:20.957Z,8.24
2022-10-05T04:43:02.329Z,8.21
2022-10-05T04:45:46.811Z,8.32
2022-10-05T04:48:41.232Z,8.37
2022-10-05T04:51:34.653Z,8.40
2022-10-05T04:54:18.229Z,8.37
2022-10-05T04:56:50.423Z,8.38
2022-10-05T04:59:47.072Z,8.34
2022-10-05T05:02:27.928Z,8.28
2022-10-05T05:05:18.868Z,8.34
2022-10-05T05:07:55.107Z,8.33
2022-10-05T05:10:55.101Z,8.37
2022-10-05T05:13:43.474Z,8.23
2022-10-05T05:16:16.183Z,8.11
2022-10-05T05:19:08.205Z,8.15
2022-10-05T05:21:43.759Z,8.15
2022-10-05T05:24:24.911Z,8.10
2022-10-05T05:27:20.312Z,8.15
2022-10-05T05:29:58.876Z,8.17
2022-10-05T05:32:40.358Z,8.17
2022-10-05T05:35:39.682Z,8.14
2022-10-05T05:38:25.507Z,8.06
2022-10-05T05:41:06.151Z,7.79
2022-10-05T05:43:50.663Z,7.89
2022-10-05T05:46:44.709Z,7.84
2022-10-05T05:49:19.221Z,7.79
2022-10-05T05:51:55.439Z,7.76
2022-10-05T05:54:33.323Z,7.79
2022-10-05T05:57:10.919Z,7.82
2022-10-05T05:59:55.190Z,7.89
2022-10-05T06:02:30.295Z,7.89
2022-10-05T06:05:04.617Z,7.94
2022-10-05T06:07:33.591Z,7.98
2022-10-05T06:10:07.216Z,7.92
2022-10-05T06:12:49.755Z,8.03
2022-10-05T06:15:30.351Z,8.12
2022-10-05T06:18:02.560Z,8.20
2022-10-05T06:20:39.627Z,8.24
2022-10-05T06:23:15.009Z,8.27
2022-10-05T06:25:59.291Z,8.34
2022-10-05T06:28:30.831Z,8.37
2022-10-05T06:31:10.337Z,8.20
2022-10-05T06:33:48.854Z,8.39
2022-10-05T06:36:32.891Z,8.43
2022-10-05T06:39:44.073Z,8.54
2022-10-05T06:42:40.049Z,8.64
2022-10-05T06:45:43.707Z,8.76
2022-10-05T06:48:40.270Z,8.81
2022-10-05T06:51:51.394Z,8.84
2022-10-05T06:54:41.434Z,8.89
2022-10-05T06:57:19.669Z,8.97
2022-10-05T06:59:57.649Z,9.09
2022-10-05T07:02:33.979Z,9.20
2022-10-05T07:05:30.724Z,9.29
2022-10-05T07:08:01.431Z,9.34
2022-10-05T07:10:34.414Z,9.40
2022-10-05T07:13:18.170Z,9.55
2022-10-05T07:15:58.734Z,9.72
2022-10-05T07:18:51.204Z,9.86
2022-10-05T07:21:30.253Z,9.97
2022-10-05T07:24:06.012Z,10.09
2022-10-05T07:26:42.774Z,10.21
2022-10-05T07:29:23.419Z,10.34
2022-10-05T07:32:05.226Z,10.48
2022-10-05T07:34:47.526Z,10.66
2022-10-05T07:37:44.756Z,10.73
2022-10-05T07:40:20.486Z,10.95
2022-10-05T07:43:00.852Z,11.12
2022-10-05T07:45:34.706Z,11.23
2022-10-05T07:48:15.254Z,11.39
2022-10-05T07:50:57.848Z,11.56
2022-10-05T07:53:34.611Z,11.70
2022-10-05T07:56:10.396Z,11.85
2022-10-05T07:58:44.840Z,11.89
2022-10-05T08:01:20.048Z,12.10
2022-10-05T08:03:57.364Z,12.36
2022-10-05T08:06:44.327Z,12.57
2022-10-05T08:09:30.049Z,12.79
2022-10-05T08:12:08.898Z,12.89
2022-10-05T08:14:45.975Z,13.09
2022-10-05T08:17:25.584Z,13.20
2022-10-05T08:20:00.738Z,13.33
2022-10-05T08:22:34.985Z,13.43
2022-10-05T08:25:07.173Z,13.59
2022-10-05T08:27:43.288Z,13.69
2022-10-05T08:30:14.298Z,13.78
2022-10-05T08:32:52.672Z,14.00
2022-10-05T08:35:29.849Z,14.15
2022-10-05T08:37:59.680Z,14.29
2022-10-05T08:41:31.143Z,14.35
2022-10-05T08:44:40.341Z,14.46
2022-10-05T08:47:19.790Z,14.61
2022-10-05T08:50:06.244Z,14.79
2022-10-05T08:52:45.910Z,15.03
2022-10-05T08:55:30.313Z,15.26
2022-10-05T08:58:34.323Z,15.51
2022-10-05T09:01:11.067Z,15.79
2022-10-05T09:04:01.004Z,16.00
2022-10-05T09:06:52.964Z,16.15
2022-10-05T09:09:37.731Z,16.23
2022-10-05T09:12:28.652Z,16.48
2022-10-05T09:15:27.118Z,16.54
2022-10-05T09:18:38.209Z,16.63
2022-10-05T09:21:15.467Z,16.81
2022-10-05T09:23:46.843Z,16.88
2022-10-05T09:26:43.916Z,17.09
2022-10-05T09:29:34.802Z,17.28
2022-10-05T09:32:33.122Z,17.50
2022-10-05T09:35:24.664Z,17.62
2022-10-05T09:38:19.611Z,17.61
2022-10-05T09:41:18.840Z,17.64
2022-10-05T09:44:22.032Z,17.77
2022-10-05T09:47:12.341Z,17.85
2022-10-05T09:50:09.413Z,17.91
2022-10-05T09:53:07.103Z,17.95
2022-10-05T09:56:01.272Z,18.07
2022-10-05T09:58:58.164Z,18.28
2022-10-05T10:01:41.748Z,18.36
2022-10-05T10:04:29.715Z,18.41
2022-10-05T10:07:28.790Z,18.55
2022-10-05T10:10:33.408Z,18.72
2022-10-05T10:13:25.997Z,18.98
2022-10-05T10:16:09.716Z,18.93
2022-10-05T10:19:06.489Z,19.25
2022-10-05T10:22:06.202Z,19.65
2022-10-05T10:24:55.556Z,19.71
2022-10-05T10:27:51.626Z,19.96
2022-10-05T10:30:46.188Z,20.32
2022-10-05T10:33:34.013Z,20.59
2022-10-05T10:36:08.323Z,20.58
2022-10-05T10:38:41.677Z,20.83
2022-10-05T10:41:28.944Z,21.12
2022-10-05T10:44:47.515Z,21.14
2022-10-05T10:47:40.775Z,21.08
2022-10-05T10:50:44.458Z,21.04
2022-10-05T10:53:35.511Z,21.11
2022-10-05T10:56:22.407Z,21.02
2022-10-05T10:59:33.317Z,21.03
2022-10-05T11:02:21.416Z,21.33
2022-10-05T11:05:15.049Z,21.41
2022-10-05T11:08:13.744Z,21.42
2022-10-05T11:11:14.500Z,21.39
2022-10-05T11:14:22.472Z,21.44
2022-10-05T11:17:31.958Z,21.58
2022-10-05T11:20:16.446Z,21.61
2022-10-05T11:23:00.309Z,21.51
2022-10-05T11:26:01.890Z,21.54
2022-10-05T11:28:49.110Z,21.68
2022-10-05T11:31:48.903Z,21.68
2022-10-05T11:34:44.020Z,21.61
2022-10-05T11:37:40.343Z,21.51
2022-10-05T11:40:52.228Z,21.46
2022-10-05T11:43:51.916Z,21.35
2022-10-05T11:46:26.643Z,21.35
2022-10-05T11:49:18.124Z,21.38
2022-10-05T11:51:57.093Z,21.39
2022-10-05T11:55:16.920Z,21.54
2022-10-05T11:57:52.047Z,21.67
2022-10-05T12:00:23.186Z,21.85
2022-10-05T12:03:04.237Z,22.14
2022-10-05T12:05:43.426Z,22.29
2022-10-05T12:08:25.652Z,22.58
2022-10-05T12:11:07.685Z,22.64
2022-10-05T12:13:43.304Z,22.74
2022-10-05T12:16:20.585Z,22.89
2022-10-05T12:19:01.263Z,22.70
2022-10-05T12:21:36.408Z,22.70
2022-10-05T12:24:15.141Z,22.72
2022-10-05T12:26:51.763Z,22.66
2022-10-05T12:29:26.533Z,22.72
2022-10-05T12:32:03.440Z,22.69
2022-10-05T12:34:44.897Z,22.37
2022-10-05T12:37:37.605Z,22.27
2022-10-05T12:40:21.003Z,22.33
2022-10-05T12:42:56.587Z,22.44
2022-10-05T12:45:37.569Z,22.25
2022-10-05T12:48:32.367Z,22.15
2022-10-05T12:51:08.929Z,22.27
2022-10-05T12:53:48.437Z,22.20
2022-10-05T12:56:30.008Z,22.15
2022-10-05T12:59:05.689Z,22.07
2022-10-05T13:01:42.855Z,22.09
2022-10-05T13:04:23.282Z,22.17
2022-10-05T13:07:05.627Z,22.25
2022-10-05T13:09:41.038Z,22.28
2022-10-05T13:12:20.815Z,22.39
2022-10-05T13:14:58.607Z,22.57
2022-10-05T13:17:35.379Z,22.71
2022-10-05T13:20:14.353Z,22.73
2022-10-05T13:22:47.836Z,22.79
2022-10-05T13:25:23.652Z,22.87
2022-10-05T13:28:10.864Z,23.00
2022-10-05T13:30:43.007Z,23.01
2022-10-05T13:33:19.170Z,23.09
2022-10-05T13:35:55.489Z,23.21
2022-10-05T13:38:36.436Z,23.42
2022-10-05T13:41:19.205Z,23.51
2022-10-05T13:43:59.548Z,23.56
2022-10-05T13:46:37.320Z,23.62
2022-10-05T13:49:22.320Z,23.65
2022-10-05T13:52:02.078Z,23.72
2022-10-05T13:54:38.911Z,23.76
2022-10-05T13:57:18.519Z,23.78
2022-10-05T13:59:54.909Z,23.73
2022-10-05T14:02:30.580Z,23.86
2022-10-05T14:05:01.293Z,23.86
2022-10-05T14:07:34.225Z,23.82
2022-10-05T14:10:04.606Z,23.77
2022-10-05T14:12:40.899Z,23.79
2022-10-05T14:15:38.467Z,23.87
2022-10-05T14:18:24.859Z,23.83
2022-10-05T14:21:02.958Z,23.71
2022-10-05T14:23:32.450Z,23.72
2022-10-05T14:26:04.154Z,23.55
2022-10-05T14:28:39.086Z,23.27
2022-10-05T14:31:15.581Z,23.24
2022-10-05T14:33:44.704Z,23.03
2022-10-05T14:36:17.226Z,22.87
2022-10-05T14:38:55.105Z,22.84
2022-10-05T14:41:27.941Z,22.80
2022-10-05T14:44:02.512Z,22.73
2022-10-05T14:46:35.904Z,22.66
2022-10-05T14:49:25.998Z,22.67
2022-10-05T14:51:56.164Z,22.61
2022-10-05T14:54:35.499Z,22.57
2022-10-05T14:57:16.552Z,22.42
2022-10-05T15:00:04.365Z,22.34
2022-10-05T15:02:55.589Z,22.22
2022-10-05T15:05:31.545Z,22.14
2022-10-05T15:08:10.505Z,22.07
2022-10-05T15:10:44.543Z,21.97
2022-10-05T15:13:17.463Z,21.89
2022-10-05T15:15:52.026Z,21.82
2022-10-05T15:18:34.773Z,21.74
2022-10-05T15:21:24.404Z,21.65
2022-10-05T15:23:57.476Z,21.56
2022-10-05T15:26:36.371Z,21.47
2022-10-05T15:29:18.659Z,21.29
2022-10-05T15:32:00.688Z,21.24
2022-10-05T15:34:40.792Z,21.16
2022-10-05T15:37:17.222Z,21.09
2022-10-05T15:39:51.988Z,21.01
2022-10-05T15:42:26.601Z,20.91
2022-10-05T15:47:51.168Z,20.72
2022-10-05T15:50:25.168Z,20.65
2022-10-05T15:52:59.344Z,20.58
2022-10-05T15:55:43.268Z,20.49
2022-10-05T15:58:31.655Z,20.45
2022-10-05T16:01:07.967Z,20.33
2022-10-05T16:03:49.127Z,20.24
2022-10-05T16:06:51.236Z,20.24
2022-10-05T16:09:36.977Z,20.11
2022-10-05T16:12:19.180Z,20.01
2022-10-05T16:15:01.402Z,19.90
2022-10-05T16:17:40.937Z,19.94
2022-10-05T16:20:30.266Z,19.81
2022-10-05T16:23:07.754Z,19.77
2022-10-05T16:26:01.705Z,19.67
2022-10-05T16:28:40.635Z,19.52
2022-10-05T16:31:18.653Z,19.40
2022-10-05T16:33:59.852Z,19.31
2022-10-05T16:36:45.833Z,19.21
2022-10-05T16:39:21.223Z,19.19
2022-10-05T16:41:58.027Z,19.22
2022-10-05T16:44:37.722Z,19.21
2022-10-05T16:47:27.607Z,19.12
2022-10-05T16:50:02.400Z,18.97
2022-10-05T16:52:35.013Z,18.81
2022-10-05T16:55:12.053Z,18.71
2022-10-05T16:57:45.085Z,18.64
2022-10-05T17:00:20.606Z,18.63
2022-10-05T17:03:03.000Z,18.60
2022-10-05T17:05:49.086Z,18.56
2022-10-05T17:08:41.544Z,18.49
2022-10-05T17:11:24.495Z,18.39
2022-10-05T17:14:16.566Z,18.24
2022-10-05T17:17:01.423Z,18.15
2022-10-05T17:19:45.682Z,18.19
2022-10-05T17:22:25.056Z,18.22
2022-10-05T17:25:05.000Z,18.25
2022-10-05T17:27:51.319Z,18.23
2022-10-05T17:30:36.926Z,18.21
2022-10-05T17:33:20.732Z,18.19
2022-10-05T17:36:12.521Z,18.13
2022-10-05T17:38:50.172Z,18.00
2022-10-05T17:41:25.976Z,17.96
2022-10-05T17:44:21.081Z,17.93
2022-10-05T17:46:51.054Z,17.91
2022-10-05T17:50:10.151Z,17.89
2022-10-05T17:53:01.276Z,17.84
2022-10-05T17:56:02.149Z,17.79
2022-10-05T17:59:07.249Z,17.74
2022-10-05T18:01:38.314Z,17.67
2022-10-05T18:04:26.595Z,17.61
2022-10-05T18:07:03.216Z,17.54
2022-10-05T18:09:36.172Z,17.49
2022-10-05T18:12:26.130Z,17.44
2022-10-05T18:15:02.189Z,17.31
2022-10-05T18:17:46.369Z,17.29
2022-10-05T18:20:28.144Z,17.24
2022-10-05T18:23:30.217Z,17.14
2022-10-05T18:26:06.566Z,17.09
2022-10-05T18:28:51.954Z,17.06
2022-10-05T18:31:34.350Z,17.01
2022-10-05T18:34:16.549Z,16.99
2022-10-05T18:37:00.165Z,16.98
2022-10-05T18:39:47.310Z,16.91
2022-10-05T18:42:23.502Z,16.89
2022-10-05T18:44:58.501Z,16.89
2022-10-05T18:47:38.018Z,16.83
2022-10-05T18:50:21.301Z,16.74
2022-10-05T18:53:04.563Z,16.61
2022-10-05T18:55:39.555Z,16.47
2022-10-05T18:58:17.681Z,16.43
2022-10-05T19:01:07.006Z,16.35
2022-10-05T19:03:47.188Z,16.23
2022-10-05T19:06:25.854Z,16.23
2022-10-05T19:09:03.533Z,16.19
2022-10-05T19:11:41.241Z,16.15
2022-10-05T19:14:21.155Z,16.16
2022-10-05T19:17:01.000Z,16.20
2022-10-05T19:19:53.819Z,16.15
2022-10-05T19:22:33.929Z,16.17
2022-10-05T19:25:22.060Z,16.18
2022-10-05T19:28:01.735Z,16.12
2022-10-05T19:30:42.800Z,16.04
2022-10-05T19:33:26.020Z,15.97
2022-10-05T19:36:09.068Z,15.90
2022-10-05T19:38:45.858Z,15.84
2022-10-05T19:41:18.538Z,15.80
2022-10-05T19:44:03.450Z,15.71
2022-10-05T19:46:49.674Z,15.71
2022-10-05T19:49:37.308Z,15.68
2022-10-05T19:52:13.862Z,15.70
2022-10-05T19:54:43.774Z,15.59
2022-10-05T19:57:17.961Z,15.57
2022-10-05T19:59:48.618Z,15.55
2022-10-05T20:02:18.134Z,15.51
2022-10-05T20:04:49.672Z,15.49
2022-10-05T20:07:21.602Z,15.43
2022-10-05T20:09:53.760Z,15.38
2022-10-05T20:12:23.036Z,15.36
2022-10-05T20:15:26.991Z,15.34
2022-10-05T20:18:12.691Z,15.33
2022-10-05T20:20:45.810Z,15.32
2022-10-05T20:23:23.705Z,15.29
2022-10-05T20:26:11.402Z,15.27
2022-10-05T20:28:39.888Z,15.24
2022-10-05T20:31:08.649Z,15.24
2022-10-05T20:33:40.530Z,15.22
2022-10-05T20:36:12.247Z,15.20
2022-10-05T20:38:43.541Z,15.19
2022-10-05T20:41:12.639Z,15.14
2022-10-05T20:43:41.226Z,15.08
2022-10-05T20:46:09.594Z,15.07
2022-10-05T20:48:38.927Z,14.97
2022-10-05T20:51:07.455Z,14.96
2022-10-05T20:53:36.194Z,14.94
2022-10-05T20:56:06.954Z,14.90
2022-10-05T20:58:35.318Z,14.87
2022-10-05T21:01:17.634Z,14.82
2022-10-05T21:03:47.182Z,14.80
2022-10-05T21:06:15.591Z,14.79
2022-10-05T21:08:46.790Z,14.78
2022-10-05T21:11:17.241Z,14.79
2022-10-05T21:13:46.253Z,14.78
2022-10-05T21:16:17.125Z,14.75
2022-10-05T21:18:48.688Z,14.72
2022-10-05T21:21:18.847Z,14.69
2022-10-05T21:23:48.794Z,14.67
2022-10-05T21:26:18.506Z,14.65
2022-10-05T21:28:47.835Z,14.62
2022-10-05T21:31:16.296Z,14.59
2022-10-05T21:33:45.319Z,14.55
2022-10-05T21:36:14.559Z,14.51
2022-10-05T21:38:44.163Z,14.47
2022-10-05T21:41:12.558Z,14.47
2022-10-05T21:43:43.194Z,14.41
2022-10-05T21:46:14.552Z,14.36
2022-10-05T21:48:43.885Z,14.28
2022-10-05T21:51:16.967Z,14.30
2022-10-05T21:53:52.726Z,14.30
2022-10-05T21:56:23.586Z,14.30
2022-10-05T21:58:53.581Z,14.22
2022-10-05T22:01:23.064Z,14.18
2022-10-05T22:03:52.074Z,14.16
2022-10-05T22:06:20.786Z,14.14
2022-10-05T22:08:49.350Z,14.14
2022-10-05T22:11:19.060Z,14.13
2022-10-05T22:13:49.673Z,14.12
2022-10-05T22:16:21.920Z,14.11
2022-10-05T22:18:50.961Z,14.10
2022-10-05T22:21:21.067Z,14.04
2022-10-05T22:23:49.442Z,14.05
2022-10-05T22:26:20.641Z,14.03
2022-10-05T22:28:49.656Z,14.04
2022-10-05T22:31:19.979Z,13.99
2022-10-05T22:33:48.841Z,13.93
2022-10-05T22:36:17.600Z,13.84
2022-10-05T22:38:47.039Z,13.83
2022-10-05T22:41:18.142Z,13.79
2022-10-05T22:43:50.184Z,13.76
2022-10-05T22:46:20.284Z,13.70
2022-10-05T22:48:49.511Z,13.68
2022-10-05T22:51:18.422Z,13.70
2022-10-05T22:53:46.775Z,13.70
2022-10-05T22:56:16.892Z,13.64
2022-10-05T22:58:47.288Z,13.63
2022-10-05T23:01:18.128Z,13.65
2022-10-05T23:03:48.950Z,13.62
2022-10-05T23:06:19.223Z,13.60
2022-10-05T23:08:48.930Z,13.62
2022-10-05T23:11:19.426Z,13.61
2022-10-05T23:13:48.379Z,13.63
2022-10-05T23:16:18.947Z,13.57
2022-10-05T23:18:50.944Z,13.50
2022-10-05T23:21:20.723Z,13.46
2022-10-05T23:23:51.513Z,13.43
2022-10-05T23:26:22.810Z,13.41
2022-10-05T23:28:51.595Z,13.43
2022-10-05T23:31:21.990Z,13.44
2022-10-05T23:33:52.547Z,13.39
2022-10-05T23:36:23.359Z,13.37
2022-10-05T23:38:52.527Z,13.30
2022-10-05T23:41:22.013Z,13.21
2022-10-05T23:43:51.003Z,13.24
2022-10-05T23:46:19.688Z,13.17
2022-10-05T23:48:50.335Z,13.08
2022-10-05T23:51:20.196Z,13.04
2022-10-05T23:53:49.527Z,13.04
2022-10-05T23:56:17.907Z,12.97
2022-10-05T23:58:47.019Z,13.05
